sensor_id;sensor_type;location;lat;lon;timestamp;pressure;altitude;pressure_sealevel;temperature;humidity
20350;BME280;10332;50.208;18.988;2023-03-13T00:01:31;97552.50;;;6.33;67.26
20350;BME280;10332;50.208;18.988;2023-03-13T00:03:59;97549.63;;;6.37;67.12
20350;BME280;10332;50.208;18.988;2023-03-13T00:06:32;97557.34;;;6.39;67.67
20350;BME280;10332;50.208;18.988;2023-03-13T00:09:02;97563.16;;;6.42;68.20
20350;BME280;10332;50.208;18.988;2023-03-13T00:11:30;97574.44;;;6.55;67.99
20350;BME280;10332;50.208;18.988;2023-03-13T00:14:01;97556.69;;;6.49;68.24
20350;BME280;10332;50.208;18.988;2023-03-13T00:16:30;97546.69;;;6.43;68.97
20350;BME280;10332;50.208;18.988;2023-03-13T00:18:58;97551.78;;;6.45;68.99
20350;BME280;10332;50.208;18.988;2023-03-13T00:21:27;97545.94;;;6.41;69.69
20350;BME280;10332;50.208;18.988;2023-03-13T00:23:58;97542.81;;;6.50;69.46
20350;BME280;10332;50.208;18.988;2023-03-13T00:26:27;97537.72;;;6.49;69.75
20350;BME280;10332;50.208;18.988;2023-03-13T00:28:55;97541.59;;;6.42;70.32
20350;BME280;10332;50.208;18.988;2023-03-13T00:31:26;97540.22;;;6.50;70.20
20350;BME280;10332;50.208;18.988;2023-03-13T00:33:59;97524.38;;;6.41;70.85
20350;BME280;10332;50.208;18.988;2023-03-13T00:36:31;97518.78;;;6.47;71.16
20350;BME280;10332;50.208;18.988;2023-03-13T00:38:59;97519.66;;;6.47;71.20
20350;BME280;10332;50.208;18.988;2023-03-13T00:41:31;97519.25;;;6.53;71.52
20350;BME280;10332;50.208;18.988;2023-03-13T00:43:59;97514.06;;;6.53;71.41
20350;BME280;10332;50.208;18.988;2023-03-13T00:46:45;97509.56;;;6.57;71.69
20350;BME280;10332;50.208;18.988;2023-03-13T00:49:12;97528.28;;;6.48;72.56
20350;BME280;10332;50.208;18.988;2023-03-13T00:51:40;97508.63;;;6.44;72.92
20350;BME280;10332;50.208;18.988;2023-03-13T00:54:08;97517.13;;;6.46;73.26
20350;BME280;10332;50.208;18.988;2023-03-13T00:56:35;97519.00;;;6.58;72.86
20350;BME280;10332;50.208;18.988;2023-03-13T00:59:03;97511.47;;;6.68;73.04
20350;BME280;10332;50.208;18.988;2023-03-13T01:01:35;97517.97;;;6.61;73.63
20350;BME280;10332;50.208;18.988;2023-03-13T01:04:10;97499.66;;;6.49;74.04
20350;BME280;10332;50.208;18.988;2023-03-13T01:06:40;97488.16;;;6.53;74.16
20350;BME280;10332;50.208;18.988;2023-03-13T01:09:14;97487.88;;;6.58;74.25
20350;BME280;10332;50.208;18.988;2023-03-13T01:11:43;97500.00;;;6.58;74.60
20350;BME280;10332;50.208;18.988;2023-03-13T01:14:16;97512.41;;;6.52;75.24
20350;BME280;10332;50.208;18.988;2023-03-13T01:16:43;97510.38;;;6.58;75.23
20350;BME280;10332;50.208;18.988;2023-03-13T01:19:14;97506.97;;;6.57;75.76
20350;BME280;10332;50.208;18.988;2023-03-13T01:21:43;97513.09;;;6.56;76.02
20350;BME280;10332;50.208;18.988;2023-03-13T01:24:11;97511.03;;;6.61;76.22
20350;BME280;10332;50.208;18.988;2023-03-13T01:26:38;97522.59;;;6.70;76.22
20350;BME280;10332;50.208;18.988;2023-03-13T01:29:06;97507.34;;;6.65;76.51
20350;BME280;10332;50.208;18.988;2023-03-13T01:31:34;97524.41;;;6.82;76.21
20350;BME280;10332;50.208;18.988;2023-03-13T01:34:04;97526.00;;;6.70;76.66
20350;BME280;10332;50.208;18.988;2023-03-13T01:36:35;97531.00;;;6.73;76.87
20350;BME280;10332;50.208;18.988;2023-03-13T01:39:04;97520.38;;;6.64;77.47
20350;BME280;10332;50.208;18.988;2023-03-13T01:41:31;97537.31;;;6.69;77.19
20350;BME280;10332;50.208;18.988;2023-03-13T01:43:59;97522.13;;;6.77;77.37
20350;BME280;10332;50.208;18.988;2023-03-13T01:46:30;97525.09;;;6.71;77.67
20350;BME280;10332;50.208;18.988;2023-03-13T01:49:05;97530.00;;;6.76;77.72
20350;BME280;10332;50.208;18.988;2023-03-13T01:57:26;97514.53;;;6.74;78.46
20350;BME280;10332;50.208;18.988;2023-03-13T02:02:35;97518.59;;;6.78;78.46
20350;BME280;10332;50.208;18.988;2023-03-13T02:05:06;97513.41;;;6.78;78.94
20350;BME280;10332;50.208;18.988;2023-03-13T02:07:48;97521.09;;;6.80;78.85
20350;BME280;10332;50.208;18.988;2023-03-13T02:10:18;97513.03;;;6.85;79.28
20350;BME280;10332;50.208;18.988;2023-03-13T02:12:48;97523.00;;;6.91;79.49
20350;BME280;10332;50.208;18.988;2023-03-13T02:15:20;97517.56;;;6.81;79.80
20350;BME280;10332;50.208;18.988;2023-03-13T02:17:49;97518.03;;;6.88;80.01
20350;BME280;10332;50.208;18.988;2023-03-13T02:20:19;97518.28;;;6.97;79.94
20350;BME280;10332;50.208;18.988;2023-03-13T02:23:24;97517.44;;;6.97;79.94
20350;BME280;10332;50.208;18.988;2023-03-13T02:25:55;97539.13;;;6.96;80.52
20350;BME280;10332;50.208;18.988;2023-03-13T02:28:29;97526.09;;;6.83;81.45
20350;BME280;10332;50.208;18.988;2023-03-13T02:31:01;97541.56;;;6.85;81.49
20350;BME280;10332;50.208;18.988;2023-03-13T02:33:34;97534.88;;;6.80;82.03
20350;BME280;10332;50.208;18.988;2023-03-13T02:36:04;97541.84;;;6.94;81.66
20350;BME280;10332;50.208;18.988;2023-03-13T02:38:50;97534.63;;;6.85;81.97
20350;BME280;10332;50.208;18.988;2023-03-13T02:41:21;97543.97;;;6.88;82.04
20350;BME280;10332;50.208;18.988;2023-03-13T02:43:50;97542.50;;;6.83;82.45
20350;BME280;10332;50.208;18.988;2023-03-13T02:46:20;97552.47;;;6.90;82.70
20350;BME280;10332;50.208;18.988;2023-03-13T02:48:54;97553.72;;;6.84;82.80
20350;BME280;10332;50.208;18.988;2023-03-13T02:51:41;97565.91;;;6.96;82.44
20350;BME280;10332;50.208;18.988;2023-03-13T02:54:23;97549.25;;;6.86;82.69
20350;BME280;10332;50.208;18.988;2023-03-13T02:56:57;97562.50;;;6.96;82.56
20350;BME280;10332;50.208;18.988;2023-03-13T02:59:27;97555.53;;;6.82;83.10
20350;BME280;10332;50.208;18.988;2023-03-13T03:01:54;97564.81;;;6.86;83.34
20350;BME280;10332;50.208;18.988;2023-03-13T03:04:24;97556.84;;;6.89;83.39
20350;BME280;10332;50.208;18.988;2023-03-13T03:06:53;97560.63;;;6.98;82.95
20350;BME280;10332;50.208;18.988;2023-03-13T03:09:21;97559.63;;;6.86;83.66
20350;BME280;10332;50.208;18.988;2023-03-13T03:11:49;97552.31;;;6.93;83.38
20350;BME280;10332;50.208;18.988;2023-03-13T03:14:17;97554.41;;;7.00;83.26
20350;BME280;10332;50.208;18.988;2023-03-13T03:16:45;97559.78;;;6.97;83.33
20350;BME280;10332;50.208;18.988;2023-03-13T03:19:12;97549.78;;;6.91;83.81
20350;BME280;10332;50.208;18.988;2023-03-13T03:21:40;97560.72;;;6.82;84.47
20350;BME280;10332;50.208;18.988;2023-03-13T03:24:07;97554.97;;;6.91;84.49
20350;BME280;10332;50.208;18.988;2023-03-13T03:26:35;97572.81;;;6.83;84.98
20350;BME280;10332;50.208;18.988;2023-03-13T03:29:03;97563.31;;;6.96;84.47
20350;BME280;10332;50.208;18.988;2023-03-13T03:31:30;97552.47;;;6.90;84.76
20350;BME280;10332;50.208;18.988;2023-03-13T03:33:58;97554.34;;;6.88;84.73
20350;BME280;10332;50.208;18.988;2023-03-13T03:36:25;97556.84;;;6.89;84.95
20350;BME280;10332;50.208;18.988;2023-03-13T03:38:53;97565.75;;;6.85;85.17
20350;BME280;10332;50.208;18.988;2023-03-13T03:41:21;97573.91;;;6.93;85.02
20350;BME280;10332;50.208;18.988;2023-03-13T03:43:48;97551.53;;;6.91;84.97
20350;BME280;10332;50.208;18.988;2023-03-13T03:46:16;97557.75;;;7.02;84.43
20350;BME280;10332;50.208;18.988;2023-03-13T03:48:44;97557.03;;;6.86;85.20
20350;BME280;10332;50.208;18.988;2023-03-13T03:51:12;97562.03;;;6.89;85.92
20350;BME280;10332;50.208;18.988;2023-03-13T03:53:39;97553.50;;;6.87;85.87
20350;BME280;10332;50.208;18.988;2023-03-13T03:56:07;97571.09;;;6.82;86.00
20350;BME280;10332;50.208;18.988;2023-03-13T03:58:35;97561.50;;;6.84;86.02
20350;BME280;10332;50.208;18.988;2023-03-13T04:01:03;97552.75;;;6.99;85.74
20350;BME280;10332;50.208;18.988;2023-03-13T04:03:31;97561.66;;;6.95;85.92
20350;BME280;10332;50.208;18.988;2023-03-13T04:05:59;97555.53;;;7.10;85.83
20350;BME280;10332;50.208;18.988;2023-03-13T04:08:26;97559.31;;;7.05;85.71
20350;BME280;10332;50.208;18.988;2023-03-13T04:10:54;97555.34;;;6.99;86.29
20350;BME280;10332;50.208;18.988;2023-03-13T04:13:21;97560.59;;;7.12;85.92
20350;BME280;10332;50.208;18.988;2023-03-13T04:15:48;97553.56;;;7.00;86.28
20350;BME280;10332;50.208;18.988;2023-03-13T04:18:16;97556.09;;;7.01;86.40
20350;BME280;10332;50.208;18.988;2023-03-13T04:20:44;97546.09;;;6.95;86.60
20350;BME280;10332;50.208;18.988;2023-03-13T04:23:11;97551.75;;;7.02;86.31
20350;BME280;10332;50.208;18.988;2023-03-13T04:25:39;97542.34;;;7.14;85.67
20350;BME280;10332;50.208;18.988;2023-03-13T04:28:07;97541.78;;;7.08;86.03
20350;BME280;10332;50.208;18.988;2023-03-13T04:30:35;97545.97;;;7.11;86.04
20350;BME280;10332;50.208;18.988;2023-03-13T04:33:02;97541.59;;;7.11;85.87
20350;BME280;10332;50.208;18.988;2023-03-13T04:35:30;97544.63;;;7.18;86.02
20350;BME280;10332;50.208;18.988;2023-03-13T04:37:58;97550.22;;;7.12;85.98
20350;BME280;10332;50.208;18.988;2023-03-13T04:40:28;97538.84;;;7.00;86.46
20350;BME280;10332;50.208;18.988;2023-03-13T04:42:55;97540.69;;;7.13;86.07
20350;BME280;10332;50.208;18.988;2023-03-13T04:45:23;97554.03;;;7.33;85.76
20350;BME280;10332;50.208;18.988;2023-03-13T04:47:50;97536.66;;;7.21;85.49
20350;BME280;10332;50.208;18.988;2023-03-13T04:50:17;97534.34;;;7.17;85.75
20350;BME280;10332;50.208;18.988;2023-03-13T04:52:45;97533.25;;;7.06;86.31
20350;BME280;10332;50.208;18.988;2023-03-13T04:55:16;97541.41;;;7.15;86.05
20350;BME280;10332;50.208;18.988;2023-03-13T04:57:43;97528.78;;;7.23;85.81
20350;BME280;10332;50.208;18.988;2023-03-13T05:00:11;97540.72;;;7.25;85.59
20350;BME280;10332;50.208;18.988;2023-03-13T05:02:39;97531.47;;;7.21;85.80
20350;BME280;10332;50.208;18.988;2023-03-13T05:05:07;97538.94;;;7.26;85.84
20350;BME280;10332;50.208;18.988;2023-03-13T05:07:34;97532.06;;;7.12;86.14
20350;BME280;10332;50.208;18.988;2023-03-13T05:10:02;97529.88;;;7.19;86.07
20350;BME280;10332;50.208;18.988;2023-03-13T05:12:29;97520.25;;;7.21;86.07
20350;BME280;10332;50.208;18.988;2023-03-13T05:14:57;97530.06;;;7.30;85.63
20350;BME280;10332;50.208;18.988;2023-03-13T05:17:24;97529.41;;;7.26;85.63
20350;BME280;10332;50.208;18.988;2023-03-13T05:19:52;97525.50;;;7.33;85.48
20350;BME280;10332;50.208;18.988;2023-03-13T05:22:19;97526.69;;;7.28;85.87
20350;BME280;10332;50.208;18.988;2023-03-13T05:24:47;97518.84;;;7.29;85.67
20350;BME280;10332;50.208;18.988;2023-03-13T05:27:14;97522.88;;;7.33;85.83
20350;BME280;10332;50.208;18.988;2023-03-13T05:29:42;97526.44;;;7.45;84.97
20350;BME280;10332;50.208;18.988;2023-03-13T05:32:09;97520.09;;;7.36;85.35
20350;BME280;10332;50.208;18.988;2023-03-13T05:34:36;97521.13;;;7.34;85.77
20350;BME280;10332;50.208;18.988;2023-03-13T05:37:04;97513.47;;;7.45;85.27
20350;BME280;10332;50.208;18.988;2023-03-13T05:39:31;97524.50;;;7.49;85.08
20350;BME280;10332;50.208;18.988;2023-03-13T05:41:59;97525.44;;;7.48;85.25
20350;BME280;10332;50.208;18.988;2023-03-13T05:44:26;97521.47;;;7.42;85.55
20350;BME280;10332;50.208;18.988;2023-03-13T05:46:54;97527.00;;;7.50;85.29
20350;BME280;10332;50.208;18.988;2023-03-13T05:49:21;97521.81;;;7.50;85.38
20350;BME280;10332;50.208;18.988;2023-03-13T05:51:49;97531.22;;;7.65;84.99
20350;BME280;10332;50.208;18.988;2023-03-13T05:54:16;97526.84;;;7.79;84.49
20350;BME280;10332;50.208;18.988;2023-03-13T05:56:44;97520.53;;;7.83;84.18
20350;BME280;10332;50.208;18.988;2023-03-13T05:59:15;97513.38;;;7.86;84.06
20350;BME280;10332;50.208;18.988;2023-03-13T06:01:42;97500.47;;;7.85;84.14
20350;BME280;10332;50.208;18.988;2023-03-13T06:04:10;97512.75;;;7.95;83.49
20350;BME280;10332;50.208;18.988;2023-03-13T06:06:37;97526.59;;;8.21;82.59
20350;BME280;10332;50.208;18.988;2023-03-13T06:09:05;97500.41;;;8.37;81.64
20350;BME280;10332;50.208;18.988;2023-03-13T06:11:32;97501.56;;;8.46;81.32
20350;BME280;10332;50.208;18.988;2023-03-13T06:14:00;97495.28;;;8.48;81.24
20350;BME280;10332;50.208;18.988;2023-03-13T06:16:27;97489.88;;;8.26;81.91
20350;BME280;10332;50.208;18.988;2023-03-13T06:18:55;97494.03;;;8.29;81.89
20350;BME280;10332;50.208;18.988;2023-03-13T06:21:22;97496.75;;;8.27;81.95
20350;BME280;10332;50.208;18.988;2023-03-13T06:23:49;97505.56;;;8.24;81.71
20350;BME280;10332;50.208;18.988;2023-03-13T06:26:17;97504.69;;;8.38;80.95
20350;BME280;10332;50.208;18.988;2023-03-13T06:28:44;97491.13;;;8.20;81.11
20350;BME280;10332;50.208;18.988;2023-03-13T06:31:12;97503.75;;;8.39;80.29
20350;BME280;10332;50.208;18.988;2023-03-13T06:33:40;97499.84;;;8.58;79.77
20350;BME280;10332;50.208;18.988;2023-03-13T06:36:08;97496.94;;;8.62;78.96
20350;BME280;10332;50.208;18.988;2023-03-13T06:38:36;97513.13;;;8.78;78.28
20350;BME280;10332;50.208;18.988;2023-03-13T06:41:03;97497.31;;;8.81;77.97
20350;BME280;10332;50.208;18.988;2023-03-13T06:43:31;97500.69;;;8.95;77.56
20350;BME280;10332;50.208;18.988;2023-03-13T06:46:03;97501.34;;;9.22;76.59
20350;BME280;10332;50.208;18.988;2023-03-13T06:48:32;97497.38;;;9.41;75.88
20350;BME280;10332;50.208;18.988;2023-03-13T06:50:59;97492.44;;;9.84;74.21
20350;BME280;10332;50.208;18.988;2023-03-13T06:53:27;97495.44;;;9.90;73.25
20350;BME280;10332;50.208;18.988;2023-03-13T06:55:54;97480.75;;;10.12;72.83
20350;BME280;10332;50.208;18.988;2023-03-13T06:58:22;97484.25;;;10.23;72.28
20350;BME280;10332;50.208;18.988;2023-03-13T07:01:10;97487.34;;;10.29;71.75
20350;BME280;10332;50.208;18.988;2023-03-13T07:03:39;97486.03;;;10.34;71.51
20350;BME280;10332;50.208;18.988;2023-03-13T07:06:10;97483.44;;;10.34;71.36
20350;BME280;10332;50.208;18.988;2023-03-13T07:08:39;97481.28;;;10.50;70.91
20350;BME280;10332;50.208;18.988;2023-03-13T07:11:10;97485.44;;;10.64;70.19
20350;BME280;10332;50.208;18.988;2023-03-13T07:13:38;97468.19;;;10.84;69.66
20350;BME280;10332;50.208;18.988;2023-03-13T07:16:09;97477.78;;;11.06;68.56
20350;BME280;10332;50.208;18.988;2023-03-13T07:18:38;97478.22;;;11.11;68.57
20350;BME280;10332;50.208;18.988;2023-03-13T07:21:11;97488.81;;;11.09;68.04
20350;BME280;10332;50.208;18.988;2023-03-13T07:23:40;97484.78;;;10.94;68.68
20350;BME280;10332;50.208;18.988;2023-03-13T07:26:13;97464.50;;;10.87;69.55
20350;BME280;10332;50.208;18.988;2023-03-13T07:28:42;97468.56;;;10.91;69.35
20350;BME280;10332;50.208;18.988;2023-03-13T07:31:19;97477.47;;;10.77;70.33
20350;BME280;10332;50.208;18.988;2023-03-13T07:33:47;97482.75;;;11.09;69.31
20350;BME280;10332;50.208;18.988;2023-03-13T07:36:15;97463.13;;;11.26;68.38
20350;BME280;10332;50.208;18.988;2023-03-13T07:38:46;97491.97;;;11.56;67.37
20350;BME280;10332;50.208;18.988;2023-03-13T07:41:14;97450.19;;;12.59;64.89
20350;BME280;10332;50.208;18.988;2023-03-13T07:43:42;97447.13;;;15.20;56.57
20350;BME280;10332;50.208;18.988;2023-03-13T07:46:16;97443.44;;;16.10;51.36
20350;BME280;10332;50.208;18.988;2023-03-13T07:48:48;97442.19;;;17.82;47.41
20350;BME280;10332;50.208;18.988;2023-03-13T07:51:22;97448.56;;;19.69;43.18
20350;BME280;10332;50.208;18.988;2023-03-13T07:54:06;97442.84;;;20.77;40.06
20350;BME280;10332;50.208;18.988;2023-03-13T07:56:34;97444.31;;;21.51;38.19
20350;BME280;10332;50.208;18.988;2023-03-13T07:59:01;97464.75;;;22.15;36.60
20350;BME280;10332;50.208;18.988;2023-03-13T08:01:29;97444.50;;;22.83;35.39
20350;BME280;10332;50.208;18.988;2023-03-13T08:03:57;97430.31;;;23.24;34.87
20350;BME280;10332;50.208;18.988;2023-03-13T08:06:31;97427.34;;;23.67;33.81
20350;BME280;10332;50.208;18.988;2023-03-13T08:09:01;97429.69;;;23.22;34.34
20350;BME280;10332;50.208;18.988;2023-03-13T08:11:28;97443.97;;;23.01;33.98
20350;BME280;10332;50.208;18.988;2023-03-13T08:13:56;97444.50;;;23.44;33.80
20350;BME280;10332;50.208;18.988;2023-03-13T08:16:27;97442.88;;;21.70;35.62
20350;BME280;10332;50.208;18.988;2023-03-13T08:18:57;97436.72;;;20.47;38.71
20350;BME280;10332;50.208;18.988;2023-03-13T08:21:28;97430.22;;;22.56;35.88
20350;BME280;10332;50.208;18.988;2023-03-13T08:23:59;97430.06;;;21.80;36.24
20350;BME280;10332;50.208;18.988;2023-03-13T08:26:29;97439.66;;;19.62;39.37
20350;BME280;10332;50.208;18.988;2023-03-13T08:29:00;97423.56;;;23.28;33.81
20350;BME280;10332;50.208;18.988;2023-03-13T08:31:35;97405.47;;;26.70;29.42
20350;BME280;10332;50.208;18.988;2023-03-13T08:34:03;97437.69;;;22.81;33.26
20350;BME280;10332;50.208;18.988;2023-03-13T08:36:34;97415.28;;;22.62;34.51
20350;BME280;10332;50.208;18.988;2023-03-13T08:39:10;97432.94;;;24.89;31.09
20350;BME280;10332;50.208;18.988;2023-03-13T08:41:39;97432.16;;;25.27;30.64
20350;BME280;10332;50.208;18.988;2023-03-13T08:44:13;97451.66;;;22.83;33.87
20350;BME280;10332;50.208;18.988;2023-03-13T08:46:41;97429.50;;;25.59;30.45
20350;BME280;10332;50.208;18.988;2023-03-13T08:49:11;97436.75;;;24.55;31.36
20350;BME280;10332;50.208;18.988;2023-03-13T08:51:39;97415.94;;;24.71;31.55
20350;BME280;10332;50.208;18.988;2023-03-13T08:54:07;97408.94;;;25.28;30.33
20350;BME280;10332;50.208;18.988;2023-03-13T08:56:35;97414.69;;;26.56;28.95
20350;BME280;10332;50.208;18.988;2023-03-13T08:59:05;97414.09;;;26.54;28.52
20350;BME280;10332;50.208;18.988;2023-03-13T09:01:35;97406.06;;;25.86;29.40
20350;BME280;10332;50.208;18.988;2023-03-13T09:04:04;97434.22;;;25.25;30.07
20350;BME280;10332;50.208;18.988;2023-03-13T09:06:34;97431.06;;;26.66;28.56
20350;BME280;10332;50.208;18.988;2023-03-13T09:09:03;97401.91;;;29.24;25.87
20350;BME280;10332;50.208;18.988;2023-03-13T09:11:32;97439.47;;;29.76;24.71
20350;BME280;10332;50.208;18.988;2023-03-13T09:14:00;97409.25;;;27.59;26.58
20350;BME280;10332;50.208;18.988;2023-03-13T09:16:31;97402.88;;;27.84;26.60
20350;BME280;10332;50.208;18.988;2023-03-13T09:19:00;97436.72;;;31.20;22.99
20350;BME280;10332;50.208;18.988;2023-03-13T09:21:34;97392.84;;;32.68;22.07
20350;BME280;10332;50.208;18.988;2023-03-13T09:24:02;97401.25;;;33.55;21.17
20350;BME280;10332;50.208;18.988;2023-03-13T09:26:30;97391.50;;;33.59;20.85
20350;BME280;10332;50.208;18.988;2023-03-13T09:28:58;97399.72;;;34.95;20.21
20350;BME280;10332;50.208;18.988;2023-03-13T09:31:31;97385.16;;;36.03;18.94
20350;BME280;10332;50.208;18.988;2023-03-13T09:34:00;97374.59;;;36.31;18.97
20350;BME280;10332;50.208;18.988;2023-03-13T09:36:27;97393.56;;;37.83;17.57
20350;BME280;10332;50.208;18.988;2023-03-13T09:38:58;97388.06;;;39.03;16.88
20350;BME280;10332;50.208;18.988;2023-03-13T09:44:24;97384.72;;;39.56;16.51
20350;BME280;10332;50.208;18.988;2023-03-13T09:49:37;97385.38;;;31.64;21.35
20350;BME280;10332;50.208;18.988;2023-03-13T09:52:41;97388.06;;;31.10;21.39
20350;BME280;10332;50.208;18.988;2023-03-13T09:55:19;97400.66;;;26.42;26.13
20350;BME280;10332;50.208;18.988;2023-03-13T09:57:55;97377.78;;;29.29;23.77
20350;BME280;10332;50.208;18.988;2023-03-13T10:00:47;97381.38;;;30.52;22.51
20350;BME280;10332;50.208;18.988;2023-03-13T10:06:01;97386.63;;;33.76;19.71
20350;BME280;10332;50.208;18.988;2023-03-13T10:08:33;97357.38;;;32.12;20.83
20350;BME280;10332;50.208;18.988;2023-03-13T10:11:16;97352.09;;;34.58;18.86
20350;BME280;10332;50.208;18.988;2023-03-13T10:14:05;97334.97;;;35.62;18.50
20350;BME280;10332;50.208;18.988;2023-03-13T10:16:44;97382.88;;;35.47;17.88
20350;BME280;10332;50.208;18.988;2023-03-13T10:19:18;97348.72;;;35.36;18.29
20350;BME280;10332;50.208;18.988;2023-03-13T10:21:52;97369.59;;;36.14;17.36
20350;BME280;10332;50.208;18.988;2023-03-13T10:27:16;97334.25;;;38.90;15.60
20350;BME280;10332;50.208;18.988;2023-03-13T10:29:43;97413.28;;;39.95;14.80
20350;BME280;10332;50.208;18.988;2023-03-13T10:32:14;97322.06;;;42.76;13.51
20350;BME280;10332;50.208;18.988;2023-03-13T10:34:57;97327.25;;;41.93;13.73
20350;BME280;10332;50.208;18.988;2023-03-13T10:37:39;97326.22;;;34.91;17.78
20350;BME280;10332;50.208;18.988;2023-03-13T10:40:23;97286.19;;;29.19;22.58
20350;BME280;10332;50.208;18.988;2023-03-13T10:43:00;97315.66;;;26.68;25.50
20350;BME280;10332;50.208;18.988;2023-03-13T10:45:33;97299.19;;;23.75;29.11
20350;BME280;10332;50.208;18.988;2023-03-13T10:48:17;97282.06;;;21.81;32.13
20350;BME280;10332;50.208;18.988;2023-03-13T10:50:49;97319.75;;;20.56;33.96
20350;BME280;10332;50.208;18.988;2023-03-13T10:53:24;97297.78;;;19.44;36.51
20350;BME280;10332;50.208;18.988;2023-03-13T10:56:14;97303.94;;;18.76;38.29
20350;BME280;10332;50.208;18.988;2023-03-13T10:58:52;97293.31;;;18.22;39.21
20350;BME280;10332;50.208;18.988;2023-03-13T11:01:41;97309.31;;;17.65;40.58
20350;BME280;10332;50.208;18.988;2023-03-13T11:04:40;97266.81;;;17.44;41.53
20350;BME280;10332;50.208;18.988;2023-03-13T11:07:33;97269.66;;;17.18;42.40
20350;BME280;10332;50.208;18.988;2023-03-13T11:10:25;97286.28;;;17.10;42.18
20350;BME280;10332;50.208;18.988;2023-03-13T11:12:56;97246.72;;;17.10;42.43
20350;BME280;10332;50.208;18.988;2023-03-13T11:16:09;97278.06;;;16.81;42.84
20350;BME280;10332;50.208;18.988;2023-03-13T11:25:02;97224.50;;;16.05;44.51
20350;BME280;10332;50.208;18.988;2023-03-13T11:33:47;97209.78;;;16.29;44.81
20350;BME280;10332;50.208;18.988;2023-03-13T11:39:58;97206.69;;;15.83;46.61
20350;BME280;10332;50.208;18.988;2023-03-13T11:43:01;97217.31;;;15.65;46.21
20350;BME280;10332;50.208;18.988;2023-03-13T12:01:02;97165.66;;;15.72;45.18
20350;BME280;10332;50.208;18.988;2023-03-13T12:04:02;97177.13;;;15.55;44.22
20350;BME280;10332;50.208;18.988;2023-03-13T12:06:42;97159.97;;;15.85;42.92
20350;BME280;10332;50.208;18.988;2023-03-13T12:09:22;97149.47;;;15.93;42.47
20350;BME280;10332;50.208;18.988;2023-03-13T12:17:56;97161.69;;;16.27;42.22
20350;BME280;10332;50.208;18.988;2023-03-13T12:23:17;97148.00;;;16.07;41.83
20350;BME280;10332;50.208;18.988;2023-03-13T12:26:03;97161.94;;;15.83;42.74
20350;BME280;10332;50.208;18.988;2023-03-13T12:29:07;97146.50;;;15.54;43.16
20350;BME280;10332;50.208;18.988;2023-03-13T12:31:52;97147.56;;;15.35;43.64
20350;BME280;10332;50.208;18.988;2023-03-13T12:35:06;97159.97;;;15.17;45.04
20350;BME280;10332;50.208;18.988;2023-03-13T12:38:03;97177.31;;;15.01;45.47
20350;BME280;10332;50.208;18.988;2023-03-13T12:41:03;97171.13;;;14.85;46.09
20350;BME280;10332;50.208;18.988;2023-03-13T12:43:39;97180.88;;;14.48;48.71
20350;BME280;10332;50.208;18.988;2023-03-13T12:58:12;97158.75;;;13.70;53.05
20350;BME280;10332;50.208;18.988;2023-03-13T13:00:45;97152.44;;;13.63;54.25
20350;BME280;10332;50.208;18.988;2023-03-13T13:06:11;97155.72;;;13.38;55.27
20350;BME280;10332;50.208;18.988;2023-03-13T13:09:06;97152.19;;;13.56;54.80
20350;BME280;10332;50.208;18.988;2023-03-13T13:16:44;97150.38;;;13.29;56.48
20350;BME280;10332;50.208;18.988;2023-03-13T13:32:53;97118.41;;;13.16;59.15
20350;BME280;10332;50.208;18.988;2023-03-13T13:35:38;97113.63;;;13.02;60.29
20350;BME280;10332;50.208;18.988;2023-03-13T13:41:04;97128.03;;;12.88;61.26
20350;BME280;10332;50.208;18.988;2023-03-13T13:44:23;97107.22;;;12.87;61.65
20350;BME280;10332;50.208;18.988;2023-03-13T13:46:52;97108.94;;;12.68;62.10
20350;BME280;10332;50.208;18.988;2023-03-13T13:49:34;97094.84;;;12.79;62.34
20350;BME280;10332;50.208;18.988;2023-03-13T13:57:33;97096.09;;;12.65;62.51
20350;BME280;10332;50.208;18.988;2023-03-13T14:00:17;97087.22;;;12.39;63.38
20350;BME280;10332;50.208;18.988;2023-03-13T14:02:53;97087.50;;;12.26;63.74
20350;BME280;10332;50.208;18.988;2023-03-13T14:05:28;97095.78;;;12.21;63.88
20350;BME280;10332;50.208;18.988;2023-03-13T14:08:03;97094.69;;;12.34;63.28
20350;BME280;10332;50.208;18.988;2023-03-13T14:10:40;97098.13;;;12.34;63.73
20350;BME280;10332;50.208;18.988;2023-03-13T14:13:19;97094.69;;;12.24;63.95
20350;BME280;10332;50.208;18.988;2023-03-13T14:15:52;97099.13;;;12.04;66.59
20350;BME280;10332;50.208;18.988;2023-03-13T14:18:23;97089.44;;;11.85;72.34
20350;BME280;10332;50.208;18.988;2023-03-13T14:21:01;97109.47;;;11.46;74.45
20350;BME280;10332;50.208;18.988;2023-03-13T14:23:39;97112.25;;;11.14;76.61
20350;BME280;10332;50.208;18.988;2023-03-13T14:26:15;97090.59;;;10.93;76.72
20350;BME280;10332;50.208;18.988;2023-03-13T14:28:53;97082.63;;;10.94;75.50
20350;BME280;10332;50.208;18.988;2023-03-13T14:31:27;97071.00;;;10.77;77.02
20350;BME280;10332;50.208;18.988;2023-03-13T14:33:57;97069.19;;;10.68;76.66
20350;BME280;10332;50.208;18.988;2023-03-13T14:36:29;97081.19;;;10.71;75.14
20350;BME280;10332;50.208;18.988;2023-03-13T14:39:36;97055.66;;;10.84;74.83
20350;BME280;10332;50.208;18.988;2023-03-13T14:42:09;97065.06;;;10.96;72.90
20350;BME280;10332;50.208;18.988;2023-03-13T14:44:39;97072.22;;;11.04;72.37
20350;BME280;10332;50.208;18.988;2023-03-13T14:47:28;97077.22;;;11.17;72.36
20350;BME280;10332;50.208;18.988;2023-03-13T14:50:03;97066.22;;;11.23;71.24
20350;BME280;10332;50.208;18.988;2023-03-13T14:52:32;97063.50;;;11.34;70.68
20350;BME280;10332;50.208;18.988;2023-03-13T14:55:04;97068.59;;;11.35;70.69
20350;BME280;10332;50.208;18.988;2023-03-13T14:57:34;97067.94;;;11.43;70.36
20350;BME280;10332;50.208;18.988;2023-03-13T15:06:03;97063.25;;;11.66;69.11
20350;BME280;10332;50.208;18.988;2023-03-13T15:08:43;97057.94;;;11.77;68.54
20350;BME280;10332;50.208;18.988;2023-03-13T15:11:31;97065.63;;;11.69;68.89